sensor_id;sensor_type;location;lat;lon;timestamp;P1;durP1;ratioP1;P2;durP2;ratioP2
19199;SDS011;9732;52.498;5.408;2023-04-09T00:01:39;0.20;;;0.20;;
19199;SDS011;9732;52.498;5.408;2023-04-09T00:04:06;0.22;;;0.22;;
19199;SDS011;9732;52.498;5.408;2023-04-09T00:06:34;0.20;;;0.20;;
19199;SDS011;9732;52.498;5.408;2023-04-09T00:09:02;0.20;;;0.20;;
19199;SDS011;9732;52.498;5.408;2023-04-09T00:11:28;0.20;;;0.20;;
19199;SDS011;9732;52.498;5.408;2023-04-09T00:13:56;0.30;;;0.30;;
19199;SDS011;9732;52.498;5.408;2023-04-09T00:16:25;0.20;;;0.20;;
19199;SDS011;9732;52.498;5.408;2023-04-09T00:18:52;0.30;;;0.30;;
19199;SDS011;9732;52.498;5.408;2023-04-09T00:21:20;0.20;;;0.20;;
19199;SDS011;9732;52.498;5.408;2023-04-09T00:23:47;0.20;;;0.20;;
19199;SDS011;9732;52.498;5.408;2023-04-09T00:26:16;0.13;;;0.13;;
19199;SDS011;9732;52.498;5.408;2023-04-09T00:28:43;0.30;;;0.30;;
19199;SDS011;9732;52.498;5.408;2023-04-09T00:31:10;0.20;;;0.20;;
19199;SDS011;9732;52.498;5.408;2023-04-09T00:33:37;0.20;;;0.20;;
19199;SDS011;9732;52.498;5.408;2023-04-09T00:36:04;0.20;;;0.20;;
19199;SDS011;9732;52.498;5.408;2023-04-09T00:38:31;0.20;;;0.20;;
19199;SDS011;9732;52.498;5.408;2023-04-09T00:41:01;0.20;;;0.20;;
19199;SDS011;9732;52.498;5.408;2023-04-09T00:43:30;0.30;;;0.30;;
19199;SDS011;9732;52.498;5.408;2023-04-09T00:45:57;0.25;;;0.25;;
19199;SDS011;9732;52.498;5.408;2023-04-09T00:48:24;0.20;;;0.20;;
19199;SDS011;9732;52.498;5.408;2023-04-09T00:50:51;0.25;;;0.25;;
19199;SDS011;9732;52.498;5.408;2023-04-09T00:53:18;0.20;;;0.20;;
19199;SDS011;9732;52.498;5.408;2023-04-09T00:55:45;0.20;;;0.20;;
19199;SDS011;9732;52.498;5.408;2023-04-09T00:58:12;0.10;;;0.10;;
19199;SDS011;9732;52.498;5.408;2023-04-09T01:00:40;0.20;;;0.20;;
19199;SDS011;9732;52.498;5.408;2023-04-09T01:03:07;0.20;;;0.20;;
19199;SDS011;9732;52.498;5.408;2023-04-09T01:05:37;0.30;;;0.30;;
19199;SDS011;9732;52.498;5.408;2023-04-09T01:08:11;0.30;;;0.30;;
19199;SDS011;9732;52.498;5.408;2023-04-09T01:10:45;0.20;;;0.20;;
19199;SDS011;9732;52.498;5.408;2023-04-09T01:13:19;0.30;;;0.30;;
19199;SDS011;9732;52.498;5.408;2023-04-09T01:15:56;0.20;;;0.20;;
19199;SDS011;9732;52.498;5.408;2023-04-09T01:18:28;0.20;;;0.20;;
19199;SDS011;9732;52.498;5.408;2023-04-09T01:21:01;0.30;;;0.30;;
19199;SDS011;9732;52.498;5.408;2023-04-09T01:23:36;0.30;;;0.30;;
19199;SDS011;9732;52.498;5.408;2023-04-09T01:26:15;0.30;;;0.30;;
19199;SDS011;9732;52.498;5.408;2023-04-09T01:28:48;0.20;;;0.20;;
19199;SDS011;9732;52.498;5.408;2023-04-09T01:31:20;0.20;;;0.20;;
19199;SDS011;9732;52.498;5.408;2023-04-09T01:33:52;0.30;;;0.30;;
19199;SDS011;9732;52.498;5.408;2023-04-09T01:36:20;0.20;;;0.20;;
19199;SDS011;9732;52.498;5.408;2023-04-09T01:38:49;0.30;;;0.30;;
19199;SDS011;9732;52.498;5.408;2023-04-09T01:41:17;0.30;;;0.30;;
19199;SDS011;9732;52.498;5.408;2023-04-09T01:43:48;0.30;;;0.30;;
19199;SDS011;9732;52.498;5.408;2023-04-09T01:46:17;0.30;;;0.30;;
19199;SDS011;9732;52.498;5.408;2023-04-09T01:48:46;0.27;;;0.27;;
19199;SDS011;9732;52.498;5.408;2023-04-09T01:51:13;0.20;;;0.20;;
19199;SDS011;9732;52.498;5.408;2023-04-09T01:53:41;0.27;;;0.27;;
19199;SDS011;9732;52.498;5.408;2023-04-09T01:56:08;0.27;;;0.27;;
19199;SDS011;9732;52.498;5.408;2023-04-09T01:58:37;0.30;;;0.30;;
19199;SDS011;9732;52.498;5.408;2023-04-09T02:01:08;0.30;;;0.30;;
19199;SDS011;9732;52.498;5.408;2023-04-09T02:03:38;0.20;;;0.20;;
19199;SDS011;9732;52.498;5.408;2023-04-09T02:06:12;0.20;;;0.20;;
19199;SDS011;9732;52.498;5.408;2023-04-09T02:08:42;0.30;;;0.30;;
19199;SDS011;9732;52.498;5.408;2023-04-09T02:11:11;0.20;;;0.20;;
19199;SDS011;9732;52.498;5.408;2023-04-09T02:13:42;0.30;;;0.30;;
19199;SDS011;9732;52.498;5.408;2023-04-09T02:16:12;0.20;;;0.20;;
19199;SDS011;9732;52.498;5.408;2023-04-09T02:18:41;0.20;;;0.20;;
19199;SDS011;9732;52.498;5.408;2023-04-09T02:21:08;0.30;;;0.30;;
19199;SDS011;9732;52.498;5.408;2023-04-09T02:23:37;0.30;;;0.30;;
19199;SDS011;9732;52.498;5.408;2023-04-09T02:26:04;0.20;;;0.20;;
19199;SDS011;9732;52.498;5.408;2023-04-09T02:28:31;0.30;;;0.30;;
19199;SDS011;9732;52.498;5.408;2023-04-09T02:30:59;0.23;;;0.23;;
19199;SDS011;9732;52.498;5.408;2023-04-09T02:33:27;0.28;;;0.28;;
19199;SDS011;9732;52.498;5.408;2023-04-09T02:35:55;0.30;;;0.30;;
19199;SDS011;9732;52.498;5.408;2023-04-09T02:38:22;0.20;;;0.20;;
19199;SDS011;9732;52.498;5.408;2023-04-09T02:40:49;0.20;;;0.20;;
19199;SDS011;9732;52.498;5.408;2023-04-09T02:43:16;0.20;;;0.20;;
19199;SDS011;9732;52.498;5.408;2023-04-09T02:45:43;0.27;;;0.27;;
19199;SDS011;9732;52.498;5.408;2023-04-09T02:48:11;0.30;;;0.30;;
19199;SDS011;9732;52.498;5.408;2023-04-09T02:50:39;0.20;;;0.20;;
19199;SDS011;9732;52.498;5.408;2023-04-09T02:53:06;0.20;;;0.20;;
19199;SDS011;9732;52.498;5.408;2023-04-09T02:55:33;0.30;;;0.30;;
19199;SDS011;9732;52.498;5.408;2023-04-09T02:58:00;0.30;;;0.30;;
19199;SDS011;9732;52.498;5.408;2023-04-09T03:00:27;0.20;;;0.20;;
19199;SDS011;9732;52.498;5.408;2023-04-09T03:02:54;0.30;;;0.30;;
19199;SDS011;9732;52.498;5.408;2023-04-09T03:05:22;0.20;;;0.20;;
19199;SDS011;9732;52.498;5.408;2023-04-09T03:07:50;0.23;;;0.23;;
19199;SDS011;9732;52.498;5.408;2023-04-09T03:10:17;0.20;;;0.20;;
19199;SDS011;9732;52.498;5.408;2023-04-09T03:12:43;0.20;;;0.20;;
19199;SDS011;9732;52.498;5.408;2023-04-09T03:15:13;0.20;;;0.20;;
19199;SDS011;9732;52.498;5.408;2023-04-09T03:17:40;0.20;;;0.20;;
19199;SDS011;9732;52.498;5.408;2023-04-09T03:20:07;0.30;;;0.30;;
19199;SDS011;9732;52.498;5.408;2023-04-09T03:22:35;0.27;;;0.27;;
19199;SDS011;9732;52.498;5.408;2023-04-09T03:25:04;0.20;;;0.20;;
19199;SDS011;9732;52.498;5.408;2023-04-09T03:27:31;0.20;;;0.20;;
19199;SDS011;9732;52.498;5.408;2023-04-09T03:29:59;0.30;;;0.30;;
19199;SDS011;9732;52.498;5.408;2023-04-09T03:32:27;0.30;;;0.30;;
19199;SDS011;9732;52.498;5.408;2023-04-09T03:34:55;0.30;;;0.30;;
19199;SDS011;9732;52.498;5.408;2023-04-09T03:37:22;0.30;;;0.30;;
19199;SDS011;9732;52.498;5.408;2023-04-09T03:39:49;0.30;;;0.30;;
19199;SDS011;9732;52.498;5.408;2023-04-09T03:42:17;0.20;;;0.20;;
19199;SDS011;9732;52.498;5.408;2023-04-09T03:44:44;0.20;;;0.20;;
19199;SDS011;9732;52.498;5.408;2023-04-09T03:47:11;0.28;;;0.28;;
19199;SDS011;9732;52.498;5.408;2023-04-09T03:49:38;0.30;;;0.30;;
19199;SDS011;9732;52.498;5.408;2023-04-09T03:52:05;0.30;;;0.30;;
19199;SDS011;9732;52.498;5.408;2023-04-09T03:54:32;0.22;;;0.22;;
19199;SDS011;9732;52.498;5.408;2023-04-09T03:56:59;0.20;;;0.20;;
19199;SDS011;9732;52.498;5.408;2023-04-09T03:59:30;0.20;;;0.20;;
19199;SDS011;9732;52.498;5.408;2023-04-09T04:01:58;0.20;;;0.20;;
19199;SDS011;9732;52.498;5.408;2023-04-09T04:04:25;0.23;;;0.23;;
19199;SDS011;9732;52.498;5.408;2023-04-09T04:06:52;0.20;;;0.20;;
19199;SDS011;9732;52.498;5.408;2023-04-09T04:09:19;0.20;;;0.20;;
19199;SDS011;9732;52.498;5.408;2023-04-09T04:11:46;0.20;;;0.20;;
19199;SDS011;9732;52.498;5.408;2023-04-09T04:14:14;0.20;;;0.20;;
19199;SDS011;9732;52.498;5.408;2023-04-09T04:16:42;0.20;;;0.20;;
19199;SDS011;9732;52.498;5.408;2023-04-09T04:19:09;0.30;;;0.30;;
19199;SDS011;9732;52.498;5.408;2023-04-09T04:21:36;0.20;;;0.20;;
19199;SDS011;9732;52.498;5.408;2023-04-09T04:24:03;0.30;;;0.30;;
19199;SDS011;9732;52.498;5.408;2023-04-09T04:26:32;0.20;;;0.20;;
19199;SDS011;9732;52.498;5.408;2023-04-09T04:28:59;0.30;;;0.30;;
19199;SDS011;9732;52.498;5.408;2023-04-09T04:31:26;0.20;;;0.20;;
19199;SDS011;9732;52.498;5.408;2023-04-09T04:33:54;0.20;;;0.20;;
19199;SDS011;9732;52.498;5.408;2023-04-09T04:36:20;0.30;;;0.30;;
19199;SDS011;9732;52.498;5.408;2023-04-09T04:38:53;0.23;;;0.23;;
19199;SDS011;9732;52.498;5.408;2023-04-09T04:41:20;0.20;;;0.20;;
19199;SDS011;9732;52.498;5.408;2023-04-09T04:43:47;0.20;;;0.20;;
19199;SDS011;9732;52.498;5.408;2023-04-09T04:46:13;0.30;;;0.30;;
19199;SDS011;9732;52.498;5.408;2023-04-09T04:48:40;0.20;;;0.20;;
19199;SDS011;9732;52.498;5.408;2023-04-09T04:51:08;0.30;;;0.30;;
19199;SDS011;9732;52.498;5.408;2023-04-09T04:53:35;0.20;;;0.20;;
19199;SDS011;9732;52.498;5.408;2023-04-09T04:56:02;0.20;;;0.20;;
19199;SDS011;9732;52.498;5.408;2023-04-09T04:58:30;0.20;;;0.20;;
19199;SDS011;9732;52.498;5.408;2023-04-09T05:00:57;0.20;;;0.20;;
19199;SDS011;9732;52.498;5.408;2023-04-09T05:03:24;0.30;;;0.30;;
19199;SDS011;9732;52.498;5.408;2023-04-09T05:05:51;0.30;;;0.30;;
19199;SDS011;9732;52.498;5.408;2023-04-09T05:08:19;0.23;;;0.23;;
19199;SDS011;9732;52.498;5.408;2023-04-09T05:10:46;0.30;;;0.30;;
19199;SDS011;9732;52.498;5.408;2023-04-09T05:13:13;0.20;;;0.20;;
19199;SDS011;9732;52.498;5.408;2023-04-09T05:15:40;0.20;;;0.20;;
19199;SDS011;9732;52.498;5.408;2023-04-09T05:18:07;0.20;;;0.20;;
19199;SDS011;9732;52.498;5.408;2023-04-09T05:20:34;0.30;;;0.30;;
19199;SDS011;9732;52.498;5.408;2023-04-09T05:23:01;0.30;;;0.30;;
19199;SDS011;9732;52.498;5.408;2023-04-09T05:25:29;0.27;;;0.27;;
19199;SDS011;9732;52.498;5.408;2023-04-09T05:27:56;0.20;;;0.20;;
19199;SDS011;9732;52.498;5.408;2023-04-09T05:30:22;0.20;;;0.20;;
19199;SDS011;9732;52.498;5.408;2023-04-09T05:32:49;0.20;;;0.20;;
19199;SDS011;9732;52.498;5.408;2023-04-09T05:35:16;0.20;;;0.20;;
19199;SDS011;9732;52.498;5.408;2023-04-09T05:37:43;0.30;;;0.30;;
19199;SDS011;9732;52.498;5.408;2023-04-09T05:40:12;0.20;;;0.20;;
19199;SDS011;9732;52.498;5.408;2023-04-09T05:42:41;0.30;;;0.30;;
19199;SDS011;9732;52.498;5.408;2023-04-09T05:45:11;0.30;;;0.30;;
19199;SDS011;9732;52.498;5.408;2023-04-09T05:47:38;0.20;;;0.20;;
19199;SDS011;9732;52.498;5.408;2023-04-09T05:50:05;0.20;;;0.20;;
19199;SDS011;9732;52.498;5.408;2023-04-09T05:52:32;0.20;;;0.20;;
19199;SDS011;9732;52.498;5.408;2023-04-09T05:54:59;0.20;;;0.20;;
19199;SDS011;9732;52.498;5.408;2023-04-09T05:57:26;0.20;;;0.20;;
19199;SDS011;9732;52.498;5.408;2023-04-09T05:59:55;0.20;;;0.20;;
19199;SDS011;9732;52.498;5.408;2023-04-09T06:02:22;0.20;;;0.20;;
19199;SDS011;9732;52.498;5.408;2023-04-09T06:04:49;0.30;;;0.30;;
19199;SDS011;9732;52.498;5.408;2023-04-09T06:07:16;0.20;;;0.20;;
19199;SDS011;9732;52.498;5.408;2023-04-09T06:09:45;0.23;;;0.23;;
19199;SDS011;9732;52.498;5.408;2023-04-09T06:12:12;0.30;;;0.30;;
19199;SDS011;9732;52.498;5.408;2023-04-09T06:14:39;0.20;;;0.20;;
19199;SDS011;9732;52.498;5.408;2023-04-09T06:17:07;0.20;;;0.20;;
19199;SDS011;9732;52.498;5.408;2023-04-09T06:19:34;0.20;;;0.20;;
19199;SDS011;9732;52.498;5.408;2023-04-09T06:22:02;0.20;;;0.20;;
19199;SDS011;9732;52.498;5.408;2023-04-09T06:24:30;0.30;;;0.30;;
19199;SDS011;9732;52.498;5.408;2023-04-09T06:26:58;0.30;;;0.30;;
19199;SDS011;9732;52.498;5.408;2023-04-09T06:29:25;0.20;;;0.20;;
19199;SDS011;9732;52.498;5.408;2023-04-09T06:31:52;0.30;;;0.30;;
19199;SDS011;9732;52.498;5.408;2023-04-09T06:34:20;0.20;;;0.20;;
19199;SDS011;9732;52.498;5.408;2023-04-09T06:36:48;0.30;;;0.30;;
19199;SDS011;9732;52.498;5.408;2023-04-09T06:39:16;0.20;;;0.20;;
19199;SDS011;9732;52.498;5.408;2023-04-09T06:41:42;0.20;;;0.20;;
19199;SDS011;9732;52.498;5.408;2023-04-09T06:44:10;0.30;;;0.30;;
19199;SDS011;9732;52.498;5.408;2023-04-09T06:46:37;0.20;;;0.20;;
19199;SDS011;9732;52.498;5.408;2023-04-09T06:49:04;0.20;;;0.20;;
19199;SDS011;9732;52.498;5.408;2023-04-09T06:51:33;0.20;;;0.20;;
19199;SDS011;9732;52.498;5.408;2023-04-09T06:54:00;0.20;;;0.20;;
19199;SDS011;9732;52.498;5.408;2023-04-09T06:56:27;0.25;;;0.25;;
19199;SDS011;9732;52.498;5.408;2023-04-09T06:58:53;0.20;;;0.20;;
19199;SDS011;9732;52.498;5.408;2023-04-09T07:01:20;0.20;;;0.20;;
19199;SDS011;9732;52.498;5.408;2023-04-09T07:03:48;0.27;;;0.27;;
19199;SDS011;9732;52.498;5.408;2023-04-09T07:06:15;0.30;;;0.30;;
19199;SDS011;9732;52.498;5.408;2023-04-09T07:08:43;0.20;;;0.20;;
19199;SDS011;9732;52.498;5.408;2023-04-09T07:11:11;0.30;;;0.30;;
19199;SDS011;9732;52.498;5.408;2023-04-09T07:13:41;0.20;;;0.20;;
19199;SDS011;9732;52.498;5.408;2023-04-09T07:16:07;0.20;;;0.20;;
19199;SDS011;9732;52.498;5.408;2023-04-09T07:18:34;0.27;;;0.27;;
19199;SDS011;9732;52.498;5.408;2023-04-09T07:21:01;0.20;;;0.20;;
19199;SDS011;9732;52.498;5.408;2023-04-09T07:23:28;0.20;;;0.20;;
19199;SDS011;9732;52.498;5.408;2023-04-09T07:25:56;0.30;;;0.30;;
19199;SDS011;9732;52.498;5.408;2023-04-09T07:28:26;0.20;;;0.20;;
19199;SDS011;9732;52.498;5.408;2023-04-09T07:30:54;0.20;;;0.20;;
19199;SDS011;9732;52.498;5.408;2023-04-09T07:33:20;0.20;;;0.20;;
19199;SDS011;9732;52.498;5.408;2023-04-09T07:35:47;0.30;;;0.30;;
19199;SDS011;9732;52.498;5.408;2023-04-09T07:38:15;0.20;;;0.20;;
19199;SDS011;9732;52.498;5.408;2023-04-09T07:40:41;0.20;;;0.20;;
19199;SDS011;9732;52.498;5.408;2023-04-09T07:43:09;0.20;;;0.20;;
19199;SDS011;9732;52.498;5.408;2023-04-09T07:45:36;0.20;;;0.20;;
19199;SDS011;9732;52.498;5.408;2023-04-09T07:48:03;0.20;;;0.20;;
19199;SDS011;9732;52.498;5.408;2023-04-09T07:50:33;0.20;;;0.20;;
19199;SDS011;9732;52.498;5.408;2023-04-09T07:53:00;0.20;;;0.20;;
19199;SDS011;9732;52.498;5.408;2023-04-09T07:55:27;0.20;;;0.20;;
19199;SDS011;9732;52.498;5.408;2023-04-09T07:57:55;0.20;;;0.20;;
19199;SDS011;9732;52.498;5.408;2023-04-09T08:00:23;0.30;;;0.30;;
19199;SDS011;9732;52.498;5.408;2023-04-09T08:02:50;0.20;;;0.20;;
19199;SDS011;9732;52.498;5.408;2023-04-09T08:05:17;0.22;;;0.22;;
19199;SDS011;9732;52.498;5.408;2023-04-09T08:07:44;0.25;;;0.25;;
19199;SDS011;9732;52.498;5.408;2023-04-09T08:10:11;0.20;;;0.20;;
19199;SDS011;9732;52.498;5.408;2023-04-09T08:12:40;0.20;;;0.20;;
19199;SDS011;9732;52.498;5.408;2023-04-09T08:15:07;0.30;;;0.30;;
19199;SDS011;9732;52.498;5.408;2023-04-09T08:17:36;0.20;;;0.20;;
19199;SDS011;9732;52.498;5.408;2023-04-09T08:20:02;0.20;;;0.20;;
19199;SDS011;9732;52.498;5.408;2023-04-09T08:22:30;0.20;;;0.20;;
19199;SDS011;9732;52.498;5.408;2023-04-09T08:24:57;0.20;;;0.20;;
19199;SDS011;9732;52.498;5.408;2023-04-09T08:27:23;0.20;;;0.20;;
19199;SDS011;9732;52.498;5.408;2023-04-09T08:29:51;0.20;;;0.20;;
19199;SDS011;9732;52.498;5.408;2023-04-09T08:32:18;0.20;;;0.20;;
19199;SDS011;9732;52.498;5.408;2023-04-09T08:34:46;0.20;;;0.20;;
19199;SDS011;9732;52.498;5.408;2023-04-09T08:37:12;0.20;;;0.20;;
19199;SDS011;9732;52.498;5.408;2023-04-09T08:39:41;0.10;;;0.10;;
19199;SDS011;9732;52.498;5.408;2023-04-09T08:42:08;0.20;;;0.20;;
19199;SDS011;9732;52.498;5.408;2023-04-09T08:44:37;0.20;;;0.20;;
19199;SDS011;9732;52.498;5.408;2023-04-09T08:47:06;0.20;;;0.20;;
19199;SDS011;9732;52.498;5.408;2023-04-09T08:49:35;0.20;;;0.20;;
19199;SDS011;9732;52.498;5.408;2023-04-09T08:52:05;0.15;;;0.15;;
19199;SDS011;9732;52.498;5.408;2023-04-09T08:54:32;0.20;;;0.20;;
19199;SDS011;9732;52.498;5.408;2023-04-09T08:56:58;0.20;;;0.20;;
19199;SDS011;9732;52.498;5.408;2023-04-09T08:59:29;0.20;;;0.20;;
19199;SDS011;9732;52.498;5.408;2023-04-09T09:02:07;0.20;;;0.20;;
19199;SDS011;9732;52.498;5.408;2023-04-09T09:04:43;0.20;;;0.20;;
19199;SDS011;9732;52.498;5.408;2023-04-09T09:07:12;0.20;;;0.20;;
19199;SDS011;9732;52.498;5.408;2023-04-09T09:09:49;0.20;;;0.20;;
19199;SDS011;9732;52.498;5.408;2023-04-09T09:12:30;0.20;;;0.20;;
19199;SDS011;9732;52.498;5.408;2023-04-09T09:15:02;0.20;;;0.20;;
19199;SDS011;9732;52.498;5.408;2023-04-09T09:17:29;0.20;;;0.20;;
19199;SDS011;9732;52.498;5.408;2023-04-09T09:19:56;0.20;;;0.20;;
19199;SDS011;9732;52.498;5.408;2023-04-09T09:22:24;0.10;;;0.10;;
19199;SDS011;9732;52.498;5.408;2023-04-09T09:24:52;0.10;;;0.10;;
19199;SDS011;9732;52.498;5.408;2023-04-09T09:27:31;0.20;;;0.20;;
19199;SDS011;9732;52.498;5.408;2023-04-09T09:30:00;0.20;;;0.20;;
19199;SDS011;9732;52.498;5.408;2023-04-09T09:32:29;0.20;;;0.20;;
19199;SDS011;9732;52.498;5.408;2023-04-09T09:35:00;0.20;;;0.20;;
19199;SDS011;9732;52.498;5.408;2023-04-09T09:37:30;0.20;;;0.20;;
19199;SDS011;9732;52.498;5.408;2023-04-09T09:39:57;0.20;;;0.20;;
19199;SDS011;9732;52.498;5.408;2023-04-09T09:42:24;0.10;;;0.10;;
19199;SDS011;9732;52.498;5.408;2023-04-09T09:44:51;0.20;;;0.20;;
19199;SDS011;9732;52.498;5.408;2023-04-09T09:47:19;0.17;;;0.17;;
19199;SDS011;9732;52.498;5.408;2023-04-09T09:49:46;0.20;;;0.20;;
19199;SDS011;9732;52.498;5.408;2023-04-09T09:52:15;0.10;;;0.10;;
19199;SDS011;9732;52.498;5.408;2023-04-09T09:54:46;0.20;;;0.20;;
19199;SDS011;9732;52.498;5.408;2023-04-09T09:57:17;0.20;;;0.20;;
19199;SDS011;9732;52.498;5.408;2023-04-09T09:59:46;0.10;;;0.10;;
19199;SDS011;9732;52.498;5.408;2023-04-09T10:02:19;0.10;;;0.10;;
19199;SDS011;9732;52.498;5.408;2023-04-09T10:04:48;0.10;;;0.10;;
19199;SDS011;9732;52.498;5.408;2023-04-09T10:07:16;0.10;;;0.10;;
19199;SDS011;9732;52.498;5.408;2023-04-09T10:09:49;0.10;;;0.10;;
19199;SDS011;9732;52.498;5.408;2023-04-09T10:12:16;0.10;;;0.10;;
19199;SDS011;9732;52.498;5.408;2023-04-09T10:14:47;0.10;;;0.10;;
19199;SDS011;9732;52.498;5.408;2023-04-09T10:17:16;0.10;;;0.10;;
19199;SDS011;9732;52.498;5.408;2023-04-09T10:19:45;0.10;;;0.10;;
19199;SDS011;9732;52.498;5.408;2023-04-09T10:22:17;0.10;;;0.10;;
19199;SDS011;9732;52.498;5.408;2023-04-09T10:24:46;0.10;;;0.10;;
19199;SDS011;9732;52.498;5.408;2023-04-09T10:27:15;0.10;;;0.10;;
19199;SDS011;9732;52.498;5.408;2023-04-09T10:29:42;0.10;;;0.10;;
19199;SDS011;9732;52.498;5.408;2023-04-09T10:32:10;0.10;;;0.10;;
19199;SDS011;9732;52.498;5.408;2023-04-09T10:34:37;0.00;;;0.00;;
19199;SDS011;9732;52.498;5.408;2023-04-09T10:37:05;0.10;;;0.10;;
19199;SDS011;9732;52.498;5.408;2023-04-09T10:39:37;0.00;;;0.00;;
19199;SDS011;9732;52.498;5.408;2023-04-09T10:42:10;0.10;;;0.10;;
19199;SDS011;9732;52.498;5.408;2023-04-09T10:44:38;0.00;;;0.00;;
19199;SDS011;9732;52.498;5.408;2023-04-09T10:47:06;0.10;;;0.10;;
19199;SDS011;9732;52.498;5.408;2023-04-09T10:49:36;0.10;;;0.10;;
19199;SDS011;9732;52.498;5.408;2023-04-09T10:52:05;0.00;;;0.00;;
19199;SDS011;9732;52.498;5.408;2023-04-09T10:54:35;0.05;;;0.05;;
19199;SDS011;9732;52.498;5.408;2023-04-09T10:57:18;0.10;;;0.10;;
19199;SDS011;9732;52.498;5.408;2023-04-09T10:59:46;0.10;;;0.10;;
19199;SDS011;9732;52.498;5.408;2023-04-09T11:05:21;0.10;;;0.10;;
19199;SDS011;9732;52.498;5.408;2023-04-09T11:07:53;0.00;;;0.00;;
19199;SDS011;9732;52.498;5.408;2023-04-09T11:10:26;0.00;;;0.00;;
19199;SDS011;9732;52.498;5.408;2023-04-09T11:12:54;0.10;;;0.10;;
19199;SDS011;9732;52.498;5.408;2023-04-09T11:15:21;0.10;;;0.10;;
19199;SDS011;9732;52.498;5.408;2023-04-09T11:17:48;0.00;;;0.00;;
19199;SDS011;9732;52.498;5.408;2023-04-09T11:20:16;0.05;;;0.05;;
19199;SDS011;9732;52.498;5.408;2023-04-09T11:22:45;0.00;;;0.00;;
19199;SDS011;9732;52.498;5.408;2023-04-09T11:25:16;0.00;;;0.00;;
19199;SDS011;9732;52.498;5.408;2023-04-09T11:27:45;0.08;;;0.08;;
19199;SDS011;9732;52.498;5.408;2023-04-09T11:30:13;0.00;;;0.00;;
19199;SDS011;9732;52.498;5.408;2023-04-09T11:32:40;0.10;;;0.10;;
19199;SDS011;9732;52.498;5.408;2023-04-09T11:35:09;0.10;;;0.10;;
19199;SDS011;9732;52.498;5.408;2023-04-09T11:37:39;0.00;;;0.00;;
19199;SDS011;9732;52.498;5.408;2023-04-09T11:40:07;0.10;;;0.10;;
19199;SDS011;9732;52.498;5.408;2023-04-09T11:42:40;0.10;;;0.10;;
19199;SDS011;9732;52.498;5.408;2023-04-09T11:45:08;0.10;;;0.10;;
19199;SDS011;9732;52.498;5.408;2023-04-09T11:47:37;0.10;;;0.10;;
19199;SDS011;9732;52.498;5.408;2023-04-09T11:50:06;0.05;;;0.05;;
19199;SDS011;9732;52.498;5.408;2023-04-09T11:52:35;0.10;;;0.10;;
19199;SDS011;9732;52.498;5.408;2023-04-09T11:55:04;0.08;;;0.08;;
19199;SDS011;9732;52.498;5.408;2023-04-09T11:57:35;0.03;;;0.03;;
19199;SDS011;9732;52.498;5.408;2023-04-09T12:00:07;0.00;;;0.00;;
19199;SDS011;9732;52.498;5.408;2023-04-09T12:02:38;0.10;;;0.10;;
19199;SDS011;9732;52.498;5.408;2023-04-09T12:05:07;0.00;;;0.00;;
19199;SDS011;9732;52.498;5.408;2023-04-09T12:07:35;0.00;;;0.00;;
19199;SDS011;9732;52.498;5.408;2023-04-09T12:10:03;0.08;;;0.08;;
19199;SDS011;9732;52.498;5.408;2023-04-09T12:12:38;0.00;;;0.00;;
19199;SDS011;9732;52.498;5.408;2023-04-09T12:15:09;0.00;;;0.00;;
19199;SDS011;9732;52.498;5.408;2023-04-09T12:17:47;0.00;;;0.00;;
19199;SDS011;9732;52.498;5.408;2023-04-09T12:20:25;0.00;;;0.00;;
19199;SDS011;9732;52.498;5.408;2023-04-09T12:22:53;0.08;;;0.08;;
19199;SDS011;9732;52.498;5.408;2023-04-09T12:25:20;0.10;;;0.10;;
19199;SDS011;9732;52.498;5.408;2023-04-09T12:27:47;0.10;;;0.10;;
19199;SDS011;9732;52.498;5.408;2023-04-09T12:30:14;0.00;;;0.00;;
19199;SDS011;9732;52.498;5.408;2023-04-09T12:32:41;0.00;;;0.00;;
19199;SDS011;9732;52.498;5.408;2023-04-09T12:35:11;0.00;;;0.00;;
19199;SDS011;9732;52.498;5.408;2023-04-09T12:37:39;0.00;;;0.00;;
19199;SDS011;9732;52.498;5.408;2023-04-09T12:40:06;0.08;;;0.08;;
19199;SDS011;9732;52.498;5.408;2023-04-09T12:42:33;0.00;;;0.00;;
19199;SDS011;9732;52.498;5.408;2023-04-09T12:45:00;0.00;;;0.00;;
19199;SDS011;9732;52.498;5.408;2023-04-09T12:47:27;0.00;;;0.00;;
19199;SDS011;9732;52.498;5.408;2023-04-09T12:49:53;0.00;;;0.00;;
19199;SDS011;9732;52.498;5.408;2023-04-09T12:52:21;0.00;;;0.00;;
19199;SDS011;9732;52.498;5.408;2023-04-09T12:54:48;0.00;;;0.00;;
19199;SDS011;9732;52.498;5.408;2023-04-09T12:57:15;0.00;;;0.00;;
19199;SDS011;9732;52.498;5.408;2023-04-09T12:59:42;0.00;;;0.00;;
19199;SDS011;9732;52.498;5.408;2023-04-09T13:02:09;0.00;;;0.00;;
19199;SDS011;9732;52.498;5.408;2023-04-09T13:04:36;0.00;;;0.00;;
19199;SDS011;9732;52.498;5.408;2023-04-09T13:07:02;0.00;;;0.00;;
19199;SDS011;9732;52.498;5.408;2023-04-09T13:09:31;0.00;;;0.00;;
19199;SDS011;9732;52.498;5.408;2023-04-09T13:11:59;0.00;;;0.00;;
19199;SDS011;9732;52.498;5.408;2023-04-09T13:14:25;0.00;;;0.00;;
19199;SDS011;9732;52.498;5.408;2023-04-09T13:16:52;0.00;;;0.00;;
19199;SDS011;9732;52.498;5.408;2023-04-09T13:19:19;0.00;;;0.00;;
19199;SDS011;9732;52.498;5.408;2023-04-09T13:21:46;0.00;;;0.00;;
19199;SDS011;9732;52.498;5.408;2023-04-09T13:24:13;0.00;;;0.00;;
19199;SDS011;9732;52.498;5.408;2023-04-09T13:26:41;0.00;;;0.00;;
19199;SDS011;9732;52.498;5.408;2023-04-09T13:29:08;0.00;;;0.00;;
19199;SDS011;9732;52.498;5.408;2023-04-09T13:31:35;0.00;;;0.00;;
19199;SDS011;9732;52.498;5.408;2023-04-09T13:34:01;0.00;;;0.00;;
19199;SDS011;9732;52.498;5.408;2023-04-09T13:36:28;0.00;;;0.00;;
19199;SDS011;9732;52.498;5.408;2023-04-09T13:38:55;0.00;;;0.00;;
19199;SDS011;9732;52.498;5.408;2023-04-09T13:41:28;0.00;;;0.00;;
19199;SDS011;9732;52.498;5.408;2023-04-09T13:43:56;0.00;;;0.00;;
19199;SDS011;9732;52.498;5.408;2023-04-09T13:46:23;0.05;;;0.05;;
19199;SDS011;9732;52.498;5.408;2023-04-09T13:48:50;0.00;;;0.00;;
19199;SDS011;9732;52.498;5.408;2023-04-09T13:51:18;0.10;;;0.10;;
19199;SDS011;9732;52.498;5.408;2023-04-09T13:53:45;0.00;;;0.00;;
19199;SDS011;9732;52.498;5.408;2023-04-09T13:56:12;0.10;;;0.10;;
19199;SDS011;9732;52.498;5.408;2023-04-09T13:58:39;0.10;;;0.10;;
19199;SDS011;9732;52.498;5.408;2023-04-09T14:01:08;0.10;;;0.10;;
19199;SDS011;9732;52.498;5.408;2023-04-09T14:03:36;0.10;;;0.10;;
19199;SDS011;9732;52.498;5.408;2023-04-09T14:06:04;0.10;;;0.10;;
19199;SDS011;9732;52.498;5.408;2023-04-09T14:08:31;0.10;;;0.10;;
19199;SDS011;9732;52.498;5.408;2023-04-09T14:10:58;0.03;;;0.03;;
19199;SDS011;9732;52.498;5.408;2023-04-09T14:13:24;0.03;;;0.03;;
19199;SDS011;9732;52.498;5.408;2023-04-09T14:15:51;0.10;;;0.10;;
19199;SDS011;9732;52.498;5.408;2023-04-09T14:18:20;0.10;;;0.10;;
19199;SDS011;9732;52.498;5.408;2023-04-09T14:20:46;0.10;;;0.10;;
19199;SDS011;9732;52.498;5.408;2023-04-09T14:23:14;0.05;;;0.05;;
19199;SDS011;9732;52.498;5.408;2023-04-09T14:25:41;0.10;;;0.10;;
19199;SDS011;9732;52.498;5.408;2023-04-09T14:28:09;0.10;;;0.10;;
19199;SDS011;9732;52.498;5.408;2023-04-09T14:30:36;0.10;;;0.10;;
19199;SDS011;9732;52.498;5.408;2023-04-09T14:33:02;0.10;;;0.10;;
19199;SDS011;9732;52.498;5.408;2023-04-09T14:35:30;0.10;;;0.10;;
19199;SDS011;9732;52.498;5.408;2023-04-09T14:38:00;0.10;;;0.10;;
19199;SDS011;9732;52.498;5.408;2023-04-09T14:40:28;0.10;;;0.10;;
19199;SDS011;9732;52.498;5.408;2023-04-09T14:42:55;0.10;;;0.10;;
19199;SDS011;9732;52.498;5.408;2023-04-09T14:45:22;0.10;;;0.10;;
19199;SDS011;9732;52.498;5.408;2023-04-09T14:47:49;0.10;;;0.10;;
19199;SDS011;9732;52.498;5.408;2023-04-09T14:50:16;0.10;;;0.10;;
19199;SDS011;9732;52.498;5.408;2023-04-09T14:52:45;0.10;;;0.10;;
19199;SDS011;9732;52.498;5.408;2023-04-09T14:55:12;0.10;;;0.10;;
19199;SDS011;9732;52.498;5.408;2023-04-09T14:57:39;0.10;;;0.10;;
19199;SDS011;9732;52.498;5.408;2023-04-09T15:00:06;0.10;;;0.10;;
19199;SDS011;9732;52.498;5.408;2023-04-09T15:02:34;0.00;;;0.00;;
19199;SDS011;9732;52.498;5.408;2023-04-09T15:05:02;0.10;;;0.10;;
19199;SDS011;9732;52.498;5.408;2023-04-09T15:07:29;0.10;;;0.10;;
19199;SDS011;9732;52.498;5.408;2023-04-09T15:09:57;0.10;;;0.10;;